AEE2AD EHAM-LGAV
Flight info
| Callsign | AEE2AD |
|---|---|
| Flight time | N/A |
| Altitude | 37000 |
| Route | EDUPO Z739 MISGO DCT DOJOH DCT DODEN DCT NEGIX DCT DINKU M867 XERUM DCT BAVAX DCT RADIZ DCT LUMUS DCT GORPA DCT ELTIB DCT PINDO DCT PIKOS UL607 XORKI |
| Aircraft | A320/M-SDE3FGHIRWY/LB1 |
Departure
| Time | N/A |
|---|---|
| Airport | Amsterdam Airport Schiphol (EHAM) |
Arrival
| Time | 2026-05-04 12:54 |
|---|---|
| Airport | Athens Eleftherios Venizelos International Airport (LGAV) |
| Time | Latitude | Longitude | Altitude | Speed | Heading |
|---|---|---|---|---|---|
| 2026-05-04 10:50 | 49.37497 | 10.16503 | 35022 ft | 450 kts | 139° |
| 2026-05-04 10:52 | 49.24684 | 10.35736 | 35060 ft | 446 kts | 146° |
| 2026-05-04 10:52 | 49.19798 | 10.41580 | 35063 ft | 445 kts | 149° |
| 2026-05-04 10:54 | 48.98735 | 10.60868 | 35045 ft | 442 kts | 153° |
| 2026-05-04 10:56 | 48.80419 | 10.78129 | 35043 ft | 449 kts | 141° |
| 2026-05-04 10:56 | 48.78253 | 10.81565 | 35031 ft | 453 kts | 136° |
| 2026-05-04 10:57 | 48.74047 | 10.88665 | 35028 ft | 452 kts | 136° |
| 2026-05-04 10:57 | 48.69826 | 10.95727 | 35022 ft | 452 kts | 136° |
| 2026-05-04 10:58 | 48.65591 | 11.02780 | 35019 ft | 453 kts | 136° |
| 2026-05-04 10:58 | 48.61353 | 11.09836 | 35021 ft | 454 kts | 136° |
| 2026-05-04 10:59 | 48.57109 | 11.16899 | 35025 ft | 454 kts | 136° |
| 2026-05-04 10:59 | 48.52887 | 11.23894 | 35028 ft | 454 kts | 136° |
| 2026-05-04 11:00 | 48.48629 | 11.30923 | 35013 ft | 454 kts | 136° |
| 2026-05-04 11:02 | 48.31564 | 11.58927 | 35039 ft | 454 kts | 136° |
| 2026-05-04 11:05 | 47.97127 | 12.07478 | 35003 ft | 455 kts | 141° |
| 2026-05-04 11:06 | 47.92442 | 12.13816 | 35014 ft | 455 kts | 141° |
| 2026-05-04 11:06 | 47.87757 | 12.20143 | 35014 ft | 455 kts | 141° |
| 2026-05-04 11:10 | 47.55608 | 12.65146 | 35006 ft | 455 kts | 135° |
| 2026-05-04 11:12 | 47.38392 | 12.92579 | 35039 ft | 455 kts | 135° |
| 2026-05-04 11:12 | 47.34085 | 12.99420 | 35023 ft | 455 kts | 135° |
| 2026-05-04 11:13 | 47.29771 | 13.06246 | 35044 ft | 455 kts | 135° |
| 2026-05-04 11:13 | 47.25445 | 13.13059 | 35040 ft | 456 kts | 135° |
| 2026-05-04 11:14 | 47.21107 | 13.19861 | 35058 ft | 456 kts | 135° |
| 2026-05-04 11:16 | 47.03731 | 13.47018 | 35067 ft | 457 kts | 135° |
| 2026-05-04 11:16 | 46.99360 | 13.53796 | 35075 ft | 457 kts | 135° |
| 2026-05-04 11:17 | 46.94991 | 13.60563 | 35085 ft | 457 kts | 135° |
| 2026-05-04 11:19 | 46.77457 | 13.87540 | 35082 ft | 459 kts | 135° |
| 2026-05-04 11:19 | 46.73044 | 13.94284 | 35063 ft | 459 kts | 135° |
| 2026-05-04 11:20 | 46.68633 | 14.01024 | 35075 ft | 460 kts | 135° |
| 2026-05-04 11:20 | 46.64219 | 14.07747 | 35090 ft | 460 kts | 135° |
| 2026-05-04 11:22 | 46.46422 | 14.34432 | 35073 ft | 461 kts | 136° |
| 2026-05-04 11:23 | 46.41942 | 14.41086 | 35068 ft | 461 kts | 136° |
| 2026-05-04 11:25 | 46.26230 | 14.64300 | 35056 ft | 464 kts | 136° |
| 2026-05-04 11:25 | 46.21700 | 14.70971 | 35063 ft | 466 kts | 135° |
| 2026-05-04 11:27 | 46.01267 | 15.00773 | 35091 ft | 464 kts | 136° |
| 2026-05-04 11:28 | 45.96722 | 15.07352 | 35096 ft | 464 kts | 136° |
| 2026-05-04 11:28 | 45.92179 | 15.13920 | 35090 ft | 464 kts | 136° |
| 2026-05-04 11:29 | 45.87623 | 15.20488 | 35086 ft | 464 kts | 135° |
| 2026-05-04 11:29 | 45.83064 | 15.27058 | 35068 ft | 465 kts | 135° |
| 2026-05-04 11:33 | 45.47184 | 15.66090 | 35091 ft | 464 kts | 146° |
| 2026-05-04 11:33 | 45.42809 | 15.70528 | 35093 ft | 464 kts | 145° |
| 2026-05-04 11:34 | 45.37539 | 15.75862 | 35070 ft | 465 kts | 145° |
| 2026-05-04 11:34 | 45.32260 | 15.81189 | 35073 ft | 466 kts | 145° |
| 2026-05-04 11:35 | 45.26971 | 15.86519 | 35083 ft | 466 kts | 145° |
| 2026-05-04 11:35 | 45.21671 | 15.91835 | 35084 ft | 467 kts | 146° |
| 2026-05-04 11:36 | 45.16361 | 15.97141 | 35093 ft | 467 kts | 145° |
| 2026-05-04 11:36 | 45.11050 | 16.02448 | 35072 ft | 468 kts | 145° |
| 2026-05-04 11:37 | 45.05731 | 16.07755 | 35087 ft | 468 kts | 145° |
| 2026-05-04 11:37 | 45.00414 | 16.13054 | 35079 ft | 468 kts | 145° |
| 2026-05-04 11:38 | 44.95079 | 16.18350 | 35084 ft | 469 kts | 145° |
| 2026-05-04 11:38 | 44.89734 | 16.23637 | 35083 ft | 469 kts | 145° |
| 2026-05-04 11:39 | 44.84388 | 16.28929 | 35082 ft | 470 kts | 145° |
| 2026-05-04 11:41 | 44.65619 | 16.47370 | 35105 ft | 471 kts | 145° |
| 2026-05-04 11:41 | 44.60280 | 16.52586 | 35107 ft | 471 kts | 145° |
| 2026-05-04 11:42 | 44.54901 | 16.57842 | 35094 ft | 471 kts | 146° |
| 2026-05-04 11:42 | 44.49513 | 16.63094 | 35088 ft | 472 kts | 146° |
| 2026-05-04 11:43 | 44.44109 | 16.68345 | 35090 ft | 473 kts | 146° |
| 2026-05-04 11:43 | 44.38694 | 16.73590 | 35104 ft | 473 kts | 146° |
| 2026-05-04 11:44 | 44.33281 | 16.78813 | 35121 ft | 473 kts | 146° |
| 2026-05-04 11:44 | 44.28030 | 16.84359 | 35100 ft | 474 kts | 140° |
| 2026-05-04 11:45 | 44.22983 | 16.90300 | 35102 ft | 475 kts | 140° |
| 2026-05-04 11:45 | 44.17918 | 16.96227 | 35110 ft | 476 kts | 140° |
| 2026-05-04 11:46 | 44.12844 | 17.02138 | 35129 ft | 475 kts | 140° |
| 2026-05-04 11:46 | 44.07774 | 17.08039 | 35110 ft | 475 kts | 140° |
| 2026-05-04 11:47 | 44.02695 | 17.13939 | 35099 ft | 476 kts | 140° |
| 2026-05-04 11:47 | 43.97602 | 17.19848 | 35097 ft | 477 kts | 140° |
| 2026-05-04 11:48 | 43.92497 | 17.25756 | 35124 ft | 478 kts | 140° |
| 2026-05-04 11:48 | 43.87392 | 17.31637 | 35137 ft | 477 kts | 140° |
| 2026-05-04 11:49 | 43.82280 | 17.37520 | 35111 ft | 478 kts | 140° |
| 2026-05-04 11:49 | 43.77154 | 17.43409 | 35112 ft | 479 kts | 140° |
| 2026-05-04 11:50 | 43.72052 | 17.49255 | 35118 ft | 480 kts | 140° |
| 2026-05-04 11:50 | 43.66873 | 17.55172 | 35126 ft | 480 kts | 140° |
| 2026-05-04 11:51 | 43.61762 | 17.61005 | 35119 ft | 480 kts | 140° |
| 2026-05-04 11:51 | 43.56576 | 17.66914 | 35116 ft | 481 kts | 140° |
| 2026-05-04 11:52 | 43.51447 | 17.72737 | 35119 ft | 482 kts | 140° |
| 2026-05-04 11:52 | 43.46259 | 17.78601 | 35144 ft | 482 kts | 140° |
| 2026-05-04 11:53 | 43.41078 | 17.84459 | 35125 ft | 482 kts | 140° |
| 2026-05-04 11:53 | 43.35898 | 17.90308 | 35129 ft | 482 kts | 140° |
| 2026-05-04 11:55 | 43.15146 | 18.13566 | 35124 ft | 482 kts | 140° |
| 2026-05-04 11:56 | 43.09952 | 18.19361 | 35128 ft | 483 kts | 140° |
| 2026-05-04 11:56 | 43.04732 | 18.25160 | 35131 ft | 484 kts | 140° |
| 2026-05-04 11:57 | 42.99493 | 18.30955 | 35138 ft | 485 kts | 140° |
| 2026-05-04 11:57 | 42.94256 | 18.36754 | 35144 ft | 485 kts | 140° |
| 2026-05-04 11:58 | 42.89012 | 18.42552 | 35147 ft | 485 kts | 140° |
| 2026-05-04 11:58 | 42.83759 | 18.48351 | 35151 ft | 486 kts | 140° |
| 2026-05-04 11:59 | 42.78498 | 18.54141 | 35158 ft | 486 kts | 140° |
| 2026-05-04 11:59 | 42.73233 | 18.59923 | 35149 ft | 486 kts | 140° |
| 2026-05-04 12:00 | 42.67962 | 18.65689 | 35146 ft | 487 kts | 140° |
| 2026-05-04 12:00 | 42.62682 | 18.71452 | 35144 ft | 487 kts | 140° |
| 2026-05-04 12:01 | 42.57428 | 18.77181 | 35127 ft | 488 kts | 140° |
| 2026-05-04 12:02 | 42.38821 | 18.97360 | 35142 ft | 489 kts | 140° |
| 2026-05-04 12:03 | 42.33538 | 19.03067 | 35145 ft | 490 kts | 140° |
| 2026-05-04 12:03 | 42.28204 | 19.08805 | 35145 ft | 490 kts | 140° |
| 2026-05-04 12:04 | 42.22868 | 19.14533 | 35165 ft | 490 kts | 140° |
| 2026-05-04 12:04 | 42.17528 | 19.20249 | 35155 ft | 490 kts | 140° |
| 2026-05-04 12:05 | 42.12184 | 19.25967 | 35138 ft | 491 kts | 140° |
| 2026-05-04 12:05 | 42.06832 | 19.31682 | 35134 ft | 491 kts | 140° |
| 2026-05-04 12:06 | 42.01479 | 19.37379 | 35138 ft | 491 kts | 140° |
| 2026-05-04 12:06 | 41.96118 | 19.43079 | 35140 ft | 491 kts | 140° |
| 2026-05-04 12:07 | 41.90748 | 19.48771 | 35146 ft | 492 kts | 140° |
| 2026-05-04 12:07 | 41.85365 | 19.54465 | 35137 ft | 493 kts | 140° |
| 2026-05-04 12:08 | 41.80009 | 19.60117 | 35135 ft | 493 kts | 140° |
| 2026-05-04 12:08 | 41.74609 | 19.65800 | 35136 ft | 494 kts | 140° |
| 2026-05-04 12:09 | 41.69211 | 19.71466 | 35135 ft | 494 kts | 140° |
| 2026-05-04 12:09 | 41.63799 | 19.77138 | 35128 ft | 494 kts | 140° |
| 2026-05-04 12:10 | 41.58381 | 19.82811 | 35151 ft | 495 kts | 140° |
| 2026-05-04 12:10 | 41.52952 | 19.88478 | 35140 ft | 495 kts | 140° |
| 2026-05-04 12:11 | 41.47520 | 19.94136 | 35133 ft | 496 kts | 140° |
| 2026-05-04 12:11 | 41.42077 | 19.99794 | 35131 ft | 497 kts | 140° |
| 2026-05-04 12:12 | 41.36621 | 20.05452 | 35128 ft | 497 kts | 140° |
| 2026-05-04 12:12 | 41.31163 | 20.11095 | 35130 ft | 497 kts | 141° |
| 2026-05-04 12:14 | 41.09333 | 20.33548 | 35127 ft | 497 kts | 140° |
| 2026-05-04 12:15 | 41.03859 | 20.39154 | 35120 ft | 497 kts | 140° |
| 2026-05-04 12:15 | 40.98387 | 20.44758 | 35120 ft | 497 kts | 140° |
| 2026-05-04 12:16 | 40.92906 | 20.50351 | 35144 ft | 498 kts | 140° |
| 2026-05-04 12:16 | 40.87418 | 20.55940 | 35140 ft | 498 kts | 140° |
| 2026-05-04 12:17 | 40.81920 | 20.61519 | 35137 ft | 498 kts | 140° |
| 2026-05-04 12:17 | 40.76420 | 20.67082 | 35134 ft | 498 kts | 140° |
| 2026-05-04 12:18 | 40.70914 | 20.72644 | 35125 ft | 499 kts | 140° |
| 2026-05-04 12:18 | 40.65403 | 20.78190 | 35125 ft | 499 kts | 141° |
| 2026-05-04 12:19 | 40.59883 | 20.83743 | 35149 ft | 499 kts | 140° |
| 2026-05-04 12:19 | 40.54357 | 20.89288 | 35143 ft | 500 kts | 140° |
| 2026-05-04 12:20 | 40.48830 | 20.94830 | 35135 ft | 500 kts | 140° |
| 2026-05-04 12:20 | 40.43435 | 21.00573 | 35123 ft | 499 kts | 137° |
| 2026-05-04 12:21 | 40.38273 | 21.06572 | 35119 ft | 499 kts | 135° |
| 2026-05-04 12:21 | 40.33123 | 21.12677 | 35122 ft | 500 kts | 135° |
| 2026-05-04 12:22 | 40.27909 | 21.18721 | 35153 ft | 500 kts | 136° |
| 2026-05-04 12:22 | 40.22658 | 21.24704 | 35146 ft | 500 kts | 136° |
| 2026-05-04 12:23 | 40.17408 | 21.30678 | 35132 ft | 500 kts | 136° |
| 2026-05-04 12:23 | 40.12162 | 21.36663 | 35136 ft | 501 kts | 136° |
| 2026-05-04 12:24 | 40.07796 | 21.41638 | 35137 ft | 501 kts | 136° |
| 2026-05-04 12:24 | 40.02509 | 21.47654 | 35140 ft | 501 kts | 136° |
| 2026-05-04 12:25 | 39.97245 | 21.53623 | 35139 ft | 501 kts | 136° |
| 2026-05-04 12:25 | 39.92015 | 21.59549 | 35138 ft | 501 kts | 136° |
| 2026-05-04 12:26 | 39.86743 | 21.65507 | 35131 ft | 502 kts | 137° |
| 2026-05-04 12:26 | 39.81463 | 21.71462 | 35131 ft | 502 kts | 137° |
| 2026-05-04 12:27 | 39.76177 | 21.77410 | 35132 ft | 503 kts | 137° |
| 2026-05-04 12:27 | 39.70881 | 21.83342 | 35162 ft | 503 kts | 137° |
| 2026-05-04 12:28 | 39.65595 | 21.89265 | 35154 ft | 502 kts | 137° |
| 2026-05-04 12:28 | 39.60304 | 21.95192 | 35132 ft | 503 kts | 137° |
| 2026-05-04 12:29 | 39.54997 | 22.01111 | 35126 ft | 504 kts | 137° |
| 2026-05-04 12:29 | 39.49681 | 22.07029 | 35121 ft | 504 kts | 137° |
| 2026-05-04 12:30 | 39.44361 | 22.12945 | 35124 ft | 504 kts | 137° |
| 2026-05-04 12:30 | 39.39033 | 22.18850 | 35151 ft | 504 kts | 137° |
| 2026-05-04 12:31 | 39.33708 | 22.24745 | 35143 ft | 504 kts | 137° |
| 2026-05-04 12:31 | 39.28376 | 22.30622 | 35144 ft | 504 kts | 137° |
| 2026-05-04 12:32 | 39.20379 | 22.39430 | 35149 ft | 504 kts | 137° |
| 2026-05-04 12:33 | 39.15048 | 22.45295 | 35142 ft | 504 kts | 137° |
| 2026-05-04 12:33 | 39.09712 | 22.51135 | 35168 ft | 504 kts | 137° |
| 2026-05-04 12:33 | 39.07034 | 22.54064 | 34967 ft | 506 kts | 137° |
| 2026-05-04 12:34 | 39.04351 | 22.56999 | 34726 ft | 507 kts | 137° |
| 2026-05-04 12:34 | 39.01664 | 22.59936 | 34492 ft | 507 kts | 137° |
| 2026-05-04 12:34 | 38.98971 | 22.62880 | 34254 ft | 509 kts | 137° |
| 2026-05-04 12:34 | 38.96271 | 22.65827 | 33991 ft | 510 kts | 137° |
| 2026-05-04 12:35 | 38.93597 | 22.68737 | 33728 ft | 511 kts | 137° |
| 2026-05-04 12:35 | 38.90882 | 22.71687 | 33452 ft | 512 kts | 137° |
| 2026-05-04 12:35 | 38.88162 | 22.74640 | 33190 ft | 512 kts | 138° |
| 2026-05-04 12:35 | 38.85438 | 22.77591 | 32570 ft | 514 kts | 138° |
| 2026-05-04 12:36 | 38.82672 | 22.80587 | 31374 ft | 526 kts | 138° |
| 2026-05-04 12:36 | 38.79885 | 22.83604 | 30832 ft | 521 kts | 138° |
| 2026-05-04 12:36 | 38.77128 | 22.86587 | 30157 ft | 519 kts | 138° |
| 2026-05-04 12:36 | 38.74369 | 22.89573 | 29432 ft | 516 kts | 138° |
| 2026-05-04 12:37 | 38.71642 | 22.92518 | 28772 ft | 512 kts | 137° |
| 2026-05-04 12:37 | 38.68930 | 22.95440 | 28097 ft | 507 kts | 138° |
| 2026-05-04 12:37 | 38.66242 | 22.98334 | 27437 ft | 503 kts | 138° |
| 2026-05-04 12:37 | 38.63578 | 23.01202 | 26850 ft | 497 kts | 138° |
| 2026-05-04 12:38 | 38.60947 | 23.04039 | 26202 ft | 494 kts | 137° |
| 2026-05-04 12:38 | 38.58340 | 23.06841 | 25760 ft | 486 kts | 138° |
| 2026-05-04 12:38 | 38.55768 | 23.09596 | 25155 ft | 482 kts | 138° |
| 2026-05-04 12:38 | 38.53201 | 23.12345 | 24545 ft | 479 kts | 138° |
| 2026-05-04 12:39 | 38.50680 | 23.15043 | 23928 ft | 467 kts | 138° |
| 2026-05-04 12:39 | 38.48206 | 23.17688 | 23181 ft | 461 kts | 138° |
| 2026-05-04 12:39 | 38.45770 | 23.20294 | 22668 ft | 453 kts | 138° |
| 2026-05-04 12:39 | 38.43369 | 23.22857 | 22134 ft | 447 kts | 139° |
| 2026-05-04 12:40 | 38.40798 | 23.25034 | 21604 ft | 443 kts | 153° |
| 2026-05-04 12:40 | 38.38018 | 23.26670 | 21091 ft | 437 kts | 155° |
| 2026-05-04 12:40 | 38.35261 | 23.28242 | 20583 ft | 432 kts | 155° |
| 2026-05-04 12:40 | 38.32549 | 23.29779 | 20082 ft | 420 kts | 155° |
| 2026-05-04 12:41 | 38.29914 | 23.31266 | 19593 ft | 408 kts | 155° |
| 2026-05-04 12:41 | 38.27332 | 23.32720 | 19105 ft | 404 kts | 155° |
| 2026-05-04 12:41 | 38.24767 | 23.34163 | 18589 ft | 402 kts | 155° |
| 2026-05-04 12:41 | 38.22212 | 23.35597 | 17959 ft | 401 kts | 155° |
| 2026-05-04 12:42 | 38.19660 | 23.37024 | 17341 ft | 400 kts | 155° |
| 2026-05-04 12:42 | 38.17128 | 23.38436 | 16787 ft | 396 kts | 155° |
| 2026-05-04 12:42 | 38.14611 | 23.39832 | 16242 ft | 393 kts | 155° |
| 2026-05-04 12:42 | 38.12114 | 23.41212 | 15708 ft | 390 kts | 155° |
| 2026-05-04 12:43 | 38.09668 | 23.42558 | 15171 ft | 385 kts | 155° |
| 2026-05-04 12:43 | 38.07256 | 23.43880 | 14597 ft | 370 kts | 155° |
| 2026-05-04 12:43 | 38.04926 | 23.45150 | 14029 ft | 359 kts | 155° |
| 2026-05-04 12:43 | 38.02658 | 23.46386 | 13394 ft | 351 kts | 155° |
| 2026-05-04 12:44 | 38.00486 | 23.47570 | 12770 ft | 344 kts | 155° |
| 2026-05-04 12:44 | 37.98338 | 23.48754 | 12154 ft | 338 kts | 155° |
| 2026-05-04 12:44 | 37.96209 | 23.49933 | 11542 ft | 332 kts | 155° |
| 2026-05-04 12:44 | 37.94113 | 23.51099 | 10947 ft | 327 kts | 155° |
| 2026-05-04 12:45 | 37.92048 | 23.52253 | 10355 ft | 322 kts | 155° |
| 2026-05-04 12:45 | 37.90020 | 23.53397 | 9810 ft | 315 kts | 155° |
| 2026-05-04 12:45 | 37.88046 | 23.54517 | 9334 ft | 306 kts | 155° |
| 2026-05-04 12:45 | 37.86129 | 23.55611 | 8887 ft | 298 kts | 156° |
| 2026-05-04 12:46 | 37.84253 | 23.56658 | 8437 ft | 291 kts | 156° |
| 2026-05-04 12:46 | 37.82409 | 23.57695 | 7928 ft | 288 kts | 156° |
| 2026-05-04 12:46 | 37.80589 | 23.58730 | 7416 ft | 285 kts | 156° |
| 2026-05-04 12:46 | 37.78808 | 23.59804 | 6912 ft | 282 kts | 149° |
| 2026-05-04 12:47 | 37.77372 | 23.61457 | 6423 ft | 279 kts | 128° |
| 2026-05-04 12:47 | 37.76199 | 23.63400 | 5951 ft | 277 kts | 126° |
| 2026-05-04 12:47 | 37.75067 | 23.65352 | 5497 ft | 273 kts | 125° |
| 2026-05-04 12:47 | 37.73955 | 23.67265 | 5072 ft | 268 kts | 125° |
| 2026-05-04 12:48 | 37.73039 | 23.69256 | 4641 ft | 258 kts | 103° |
| 2026-05-04 12:48 | 37.72950 | 23.71437 | 4210 ft | 247 kts | 73° |
| 2026-05-04 12:48 | 37.73457 | 23.73493 | 3874 ft | 244 kts | 66° |
| 2026-05-04 12:48 | 37.74058 | 23.75495 | 3552 ft | 243 kts | 65° |
| 2026-05-04 12:49 | 37.74780 | 23.77405 | 3222 ft | 239 kts | 50° |
| 2026-05-04 12:49 | 37.75968 | 23.78792 | 3014 ft | 228 kts | 33° |
| 2026-05-04 12:49 | 37.77196 | 23.79952 | 3011 ft | 213 kts | 34° |
| 2026-05-04 12:49 | 37.78333 | 23.81032 | 3020 ft | 197 kts | 33° |
| 2026-05-04 12:50 | 37.79402 | 23.82044 | 3054 ft | 188 kts | 33° |
| 2026-05-04 12:50 | 37.80443 | 23.83026 | 3041 ft | 186 kts | 32° |
| 2026-05-04 12:50 | 37.81474 | 23.84003 | 2987 ft | 185 kts | 33° |
| 2026-05-04 12:50 | 37.82486 | 23.84962 | 2809 ft | 180 kts | 33° |
| 2026-05-04 12:51 | 37.83475 | 23.85898 | 2571 ft | 175 kts | 32° |
| 2026-05-04 12:51 | 37.84423 | 23.86797 | 2347 ft | 165 kts | 33° |
| 2026-05-04 12:51 | 37.85333 | 23.87660 | 2140 ft | 162 kts | 32° |
| 2026-05-04 12:51 | 37.86225 | 23.88505 | 1926 ft | 155 kts | 33° |
| 2026-05-04 12:52 | 37.87047 | 23.89285 | 1732 ft | 143 kts | 32° |
| 2026-05-04 12:52 | 37.87827 | 23.90026 | 1525 ft | 138 kts | 31° |
| 2026-05-04 12:52 | 37.88596 | 23.90755 | 1349 ft | 139 kts | 33° |
| 2026-05-04 12:52 | 37.89362 | 23.91499 | 1117 ft | 139 kts | 36° |
| 2026-05-04 12:53 | 37.90137 | 23.92226 | 934 ft | 139 kts | 35° |
| 2026-05-04 12:53 | 37.90906 | 23.92930 | 730 ft | 138 kts | 37° |
| 2026-05-04 12:53 | 37.91662 | 23.93660 | 543 ft | 136 kts | 40° |
| 2026-05-04 12:53 | 37.92417 | 23.94387 | 383 ft | 137 kts | 40° |
| 2026-05-04 12:54 | 37.93171 | 23.95109 | 295 ft | 130 kts | 37° |
| 2026-05-04 12:54 | 37.93763 | 23.95663 | 279 ft | 67 kts | 37° |
| 2026-05-04 12:54 | 37.94061 | 23.95936 | 282 ft | 43 kts | 30° |
| 2026-05-04 12:54 | 37.94264 | 23.96009 | 291 ft | 17 kts | 8° |
| 2026-05-04 12:55 | 37.94330 | 23.95972 | 298 ft | 6 kts | 297° |
| 2026-05-04 12:55 | 37.94315 | 23.95911 | 301 ft | 9 kts | 225° |
| 2026-05-04 12:55 | 37.94254 | 23.95859 | 301 ft | 12 kts | 218° |
| 2026-05-04 12:55 | 37.94182 | 23.95786 | 299 ft | 14 kts | 217° |
| 2026-05-04 12:56 | 37.94094 | 23.95703 | 297 ft | 16 kts | 217° |
| 2026-05-04 12:56 | 37.93997 | 23.95612 | 298 ft | 19 kts | 216° |
| 2026-05-04 12:56 | 37.93895 | 23.95517 | 299 ft | 15 kts | 218° |
| 2026-05-04 12:56 | 37.93846 | 23.95439 | 297 ft | 11 kts | 269° |
| 2026-05-04 12:57 | 37.93883 | 23.95362 | 300 ft | 10 kts | 307° |
| 2026-05-04 12:57 | 37.93875 | 23.95279 | 302 ft | 11 kts | 245° |
| 2026-05-04 12:57 | 37.93836 | 23.95188 | 300 ft | 13 kts | 226° |
| 2026-05-04 12:57 | 37.93768 | 23.95122 | 302 ft | 8 kts | 216° |
| 2026-05-04 12:58 | 37.93767 | 23.95060 | 302 ft | 7 kts | 307° |
| 2026-05-04 12:58 | 37.93788 | 23.95028 | 301 ft | 3 kts | 308° |
| 2026-05-04 12:58 | 37.93795 | 23.95015 | 302 ft | 1 kts | 308° |
| 2026-05-04 12:58 | 37.93796 | 23.95015 | 302 ft | 0 kts | 308° |